Time;durP1;ratioP1;P1;durP2;ratioP2;P2;SDS_P1;SDS_P2;PMS_P1;PMS_P2;Temp;Humidity;BMP_temperature;BMP_pressure;BME280_temperature;BME280_humidity;BME280_pressure;Samples;Min_cycle;Max_cycle;Signal;HPM_P1;HPM_P2
2023/02/04 00:00:13;;;;;;;8.18;3.90;;;;;;;1.39;82.46;98945.44;5088654;28;20040;-53
2023/02/04 00:02:40;;;;;;;9.40;4.50;;;;;;;1.30;82.58;98918.22;5079081;28;20779;-50
2023/02/04 00:05:06;;;;;;;6.13;3.63;;;;;;;1.58;81.85;98947.81;5083687;28;20040;-53
2023/02/04 00:07:32;;;;;;;7.00;4.10;;;;;;;1.73;82.21;98948.53;5089679;28;20495;-54
2023/02/04 00:09:58;;;;;;;8.30;4.05;;;;;;;1.86;81.53;98953.50;5074391;28;20051;-52
2023/02/04 00:12:24;;;;;;;6.97;4.15;;;;;;;1.66;81.10;98952.88;5086209;28;20040;-52
2023/02/04 00:14:50;;;;;;;6.90;4.28;;;;;;;1.53;81.62;98947.00;5092522;28;20036;-49
2023/02/04 00:17:16;;;;;;;7.63;4.35;;;;;;;1.60;81.47;98947.81;5092391;28;20166;-53
2023/02/04 00:19:42;;;;;;;9.52;4.95;;;;;;;1.64;81.07;98955.44;5086261;28;20067;-53
2023/02/04 00:22:08;;;;;;;6.65;4.32;;;;;;;1.68;81.20;98953.69;5084274;28;20048;-53
2023/02/04 00:24:35;;;;;;;8.90;4.50;;;;;;;1.74;81.12;98961.31;5081560;28;20203;-56
2023/02/04 00:27:01;;;;;;;7.68;4.15;;;;;;;1.55;81.04;98935.03;5082081;28;20035;-52
2023/02/04 00:29:27;;;;;;;9.05;4.40;;;;;;;1.74;81.01;98963.88;5091220;28;20036;-50
2023/02/04 00:31:53;;;;;;;8.45;4.38;;;;;;;1.85;80.54;98967.16;5077879;28;20044;-47
2023/02/04 00:34:20;;;;;;;5.93;3.83;;;;;;;1.88;80.51;98966.28;5070179;28;20067;-55
2023/02/04 00:36:46;;;;;;;7.47;4.15;;;;;;;1.80;80.52;98945.88;5080310;28;20079;-56
2023/02/04 00:39:11;;;;;;;6.88;3.83;;;;;;;1.94;80.05;98977.31;5104562;28;20102;-53
2023/02/04 00:41:37;;;;;;;6.25;3.83;;;;;;;1.97;80.31;98969.59;5071379;28;20491;-52
2023/02/04 00:44:04;;;;;;;7.40;4.18;;;;;;;2.04;80.07;98968.63;5053661;28;20477;-52
2023/02/04 00:46:29;;;;;;;7.70;4.60;;;;;;;2.02;79.64;98956.72;5087081;28;20455;-53
2023/02/04 00:48:56;;;;;;;6.70;4.28;;;;;;;2.04;79.71;98970.38;5071547;28;20036;-53
2023/02/04 00:51:22;;;;;;;7.68;4.35;;;;;;;1.79;79.69;98926.22;5074989;28;20477;-52
2023/02/04 00:53:48;;;;;;;7.30;4.07;;;;;;;2.05;79.55;98970.34;5090180;28;20040;-48
2023/02/04 00:56:14;;;;;;;6.22;3.92;;;;;;;2.02;79.42;98979.78;5090318;28;20101;-53
2023/02/04 00:58:40;;;;;;;7.57;4.18;;;;;;;1.95;79.45;98983.28;5088793;28;20047;-49
2023/02/04 01:01:06;;;;;;;8.15;4.90;;;;;;;1.71;79.98;98956.22;5086605;28;20067;-52
2023/02/04 01:03:32;;;;;;;7.13;4.18;;;;;;;1.76;79.93;98992.03;5090466;28;20456;-53
2023/02/04 01:05:58;;;;;;;7.70;4.55;;;;;;;1.62;80.52;98981.94;5074453;28;20048;-54
2023/02/04 01:08:23;;;;;;;7.25;3.97;;;;;;;1.54;80.65;98978.59;5089033;28;20050;-50
2023/02/04 01:10:49;;;;;;;8.93;4.40;;;;;;;1.49;80.61;98988.88;5086560;28;20121;-53
2023/02/04 01:13:15;;;;;;;7.80;4.72;;;;;;;1.50;80.99;98992.28;5088147;28;20041;-51
2023/02/04 01:15:41;;;;;;;7.57;4.65;;;;;;;1.56;81.24;98994.81;5085031;28;20122;-49
2023/02/04 01:18:07;;;;;;;8.02;4.25;;;;;;;1.66;80.71;98992.13;5089758;28;20529;-56
2023/02/04 01:20:34;;;;;;;7.70;4.55;;;;;;;1.74;80.72;98986.06;5084418;28;20037;-53
2023/02/04 01:23:00;;;;;;;9.07;4.80;;;;;;;1.77;80.96;98994.59;5080817;28;20085;-50
2023/02/04 01:25:26;;;;;;;7.25;4.38;;;;;;;1.80;80.43;98986.00;5069331;28;20044;-51
2023/02/04 01:27:53;;;;;;;9.32;5.28;;;;;;;1.82;80.59;98995.41;5089329;28;20044;-54
2023/02/04 01:30:19;;;;;;;6.78;4.55;;;;;;;1.92;80.78;98985.91;5084794;28;20090;-50
2023/02/04 01:32:45;;;;;;;8.07;4.60;;;;;;;2.04;80.37;98990.91;5075980;28;21087;-50
2023/02/04 01:35:12;;;;;;;8.23;4.38;;;;;;;2.12;79.66;98997.63;5089564;28;20472;-53
2023/02/04 01:37:38;;;;;;;7.07;4.40;;;;;;;2.00;79.48;98971.25;5087114;28;20126;-50
2023/02/04 01:40:04;;;;;;;7.75;4.20;;;;;;;2.23;80.02;98996.63;5079039;28;20040;-50
2023/02/04 01:42:30;;;;;;;9.48;5.13;;;;;;;2.19;79.24;99006.09;5085967;28;20071;-52
2023/02/04 01:44:56;;;;;;;7.70;4.35;;;;;;;1.97;79.38;98981.56;5075994;28;20068;-51
2023/02/04 01:47:24;;;;;;;7.25;4.30;;;;;;;2.07;79.24;99008.78;5069029;28;20121;-51
2023/02/04 01:49:52;;;;;;;8.90;4.70;;;;;;;2.12;79.18;99018.13;5069031;28;20040;-51
2023/02/04 01:52:18;;;;;;;7.60;4.80;;;;;;;1.91;79.19;99002.97;5076918;28;20043;-50
2023/02/04 01:54:43;;;;;;;8.45;4.63;;;;;;;2.07;79.30;99021.59;5090298;28;20048;-50
2023/02/04 01:57:13;;;;;;;7.63;4.72;;;;;;;2.13;79.00;99024.97;5085138;28;20528;-50
2023/02/04 01:59:41;;;;;;;7.93;4.80;;;;;;;2.14;79.15;99030.94;5071614;28;20083;-51
2023/02/04 02:02:36;;;;;;;9.43;5.00;;;;;;;2.13;78.97;99032.66;5079927;28;20054;-50
2023/02/04 02:05:03;;;;;;;8.45;4.40;;;;;;;2.10;78.89;99035.22;5069739;28;20071;-49
2023/02/04 02:07:28;;;;;;;8.77;4.82;;;;;;;1.97;79.29;99038.81;5059489;28;20097;-55
2023/02/04 02:09:54;;;;;;;7.88;4.25;;;;;;;1.98;79.31;99026.84;5083978;28;20130;-50
2023/02/04 02:12:20;;;;;;;7.78;4.53;;;;;;;1.89;79.55;99034.59;5069763;28;20076;-50
2023/02/04 02:14:46;;;;;;;9.88;5.18;;;;;;;1.68;79.75;99003.19;5083687;28;20079;-53
2023/02/04 02:17:13;;;;;;;8.18;5.05;;;;;;;2.01;79.67;99044.75;5088951;28;20077;-51
2023/02/04 02:19:40;;;;;;;8.32;4.60;;;;;;;2.10;79.47;99034.38;5088634;28;20049;-51
2023/02/04 02:22:12;;;;;;;9.55;5.30;;;;;;;1.82;79.39;99004.78;5067695;28;20503;-52
2023/02/04 02:24:38;;;;;;;8.52;5.05;;;;;;;1.93;79.45;99029.47;5069389;28;20137;-51
2023/02/04 02:27:07;;;;;;;9.10;5.30;;;;;;;2.12;79.28;99043.78;5070057;28;20181;-50
2023/02/04 02:29:33;;;;;;;8.77;5.13;;;;;;;2.19;79.22;99048.84;5068147;28;20476;-51
2023/02/04 02:31:59;;;;;;;8.23;5.03;;;;;;;2.06;79.30;99053.22;5073936;28;20567;-51
2023/02/04 02:34:26;;;;;;;9.95;5.03;;;;;;;2.10;79.51;99055.75;5082274;28;20044;-52
2023/02/04 02:36:52;;;;;;;12.63;4.88;;;;;;;2.16;79.50;99057.41;5070105;28;20086;-52
2023/02/04 02:39:18;;;;;;;9.35;4.53;;;;;;;2.20;79.38;99061.63;5077429;28;20104;-51
2023/02/04 02:41:44;;;;;;;11.10;5.28;;;;;;;2.17;79.47;99058.25;5067790;28;20846;-50
2023/02/04 02:44:11;;;;;;;12.80;5.78;;;;;;;2.14;79.07;99064.28;5087702;28;20397;-49
2023/02/04 02:46:37;;;;;;;10.07;6.18;;;;;;;2.13;79.37;99066.00;5071063;28;20043;-54
2023/02/04 02:49:03;;;;;;;14.65;8.85;;;;;;;2.15;79.44;99062.56;5088017;28;20044;-53
2023/02/04 02:51:30;;;;;;;12.57;8.23;;;;;;;2.18;79.37;99063.38;5085240;28;20048;-52
2023/02/04 02:53:56;;;;;;;13.20;7.93;;;;;;;2.26;79.22;99064.13;5069077;28;20048;-53
2023/02/04 02:56:22;;;;;;;10.80;6.63;;;;;;;2.32;79.02;99065.78;5073618;28;20276;-52
2023/02/04 02:58:48;;;;;;;9.20;5.93;;;;;;;2.06;78.85;99025.03;5089096;28;20551;-52
2023/02/04 03:01:14;;;;;;;9.63;5.47;;;;;;;2.41;78.66;99081.91;5088818;28;20059;-48
2023/02/04 03:03:49;;;;;;;13.43;5.90;;;;;;;2.43;78.71;99072.47;5067134;28;20033;-53
2023/02/04 03:06:20;;;;;;;9.80;5.38;;;;;;;2.39;78.20;99063.13;5067712;28;20048;-53
2023/02/04 03:08:50;;;;;;;7.78;4.70;;;;;;;2.42;78.49;99073.34;5067355;28;20089;-53
2023/02/04 03:11:17;;;;;;;9.40;4.88;;;;;;;2.12;78.31;99028.38;5063453;28;20511;-48
2023/02/04 03:13:43;;;;;;;7.68;4.60;;;;;;;2.39;78.02;99081.09;5054081;28;20429;-48
2023/02/04 03:16:09;;;;;;;8.82;5.10;;;;;;;2.38;78.07;99078.53;5086844;28;20475;-52
2023/02/04 03:18:36;;;;;;;7.85;5.10;;;;;;;2.38;78.07;99075.97;5087524;28;20032;-54
2023/02/04 03:21:03;;;;;;;9.77;5.10;;;;;;;2.31;77.91;99070.03;5076683;28;20048;-54
2023/02/04 03:23:32;;;;;;;10.32;5.07;;;;;;;2.47;77.67;99094.66;5051000;28;20515;-53
2023/02/04 03:25:58;;;;;;;8.55;4.93;;;;;;;2.31;77.64;99064.06;5051696;28;20595;-53
2023/02/04 03:28:24;;;;;;;9.02;5.10;;;;;;;2.41;77.76;99078.47;5050619;28;20081;-54
2023/02/04 03:30:54;;;;;;;8.73;4.70;;;;;;;2.35;77.70;99091.41;5083013;28;20126;-53
2023/02/04 03:33:26;;;;;;;9.05;4.55;;;;;;;2.33;77.49;99088.00;5087512;28;20043;-51
2023/02/04 03:35:52;;;;;;;12.90;5.25;;;;;;;2.31;77.34;99090.56;5085839;28;20048;-51
2023/02/04 03:38:18;;;;;;;7.72;4.60;;;;;;;2.27;77.20;99093.19;5087706;28;20459;-51
2023/02/04 03:40:44;;;;;;;11.70;5.22;;;;;;;2.04;77.24;99055.81;5076155;28;20048;-50
2023/02/04 03:43:10;;;;;;;7.97;4.88;;;;;;;2.24;77.09;99091.50;5069141;28;20037;-48
2023/02/04 03:45:36;;;;;;;9.30;5.38;;;;;;;2.23;77.21;99102.63;5068044;28;20076;-52
2023/02/04 03:48:02;;;;;;;8.75;5.10;;;;;;;2.23;77.52;99099.22;5068389;28;20424;-54
2023/02/04 03:50:28;;;;;;;8.60;4.80;;;;;;;2.25;76.92;99094.94;5068866;28;20048;-53
2023/02/04 03:52:54;;;;;;;9.55;5.18;;;;;;;2.24;77.04;99103.47;5068000;28;20036;-53
2023/02/04 03:55:19;;;;;;;8.82;4.75;;;;;;;2.21;76.92;99109.47;5068217;28;20052;-52
2023/02/04 03:57:46;;;;;;;9.48;4.60;;;;;;;2.20;76.92;99110.34;5068296;28;20686;-52
2023/02/04 04:00:12;;;;;;;10.60;4.40;;;;;;;2.02;77.00;99080.63;5068107;28;20079;-49
2023/02/04 04:02:39;;;;;;;8.90;5.05;;;;;;;1.96;76.87;99072.13;5077509;28;20032;-51
2023/02/04 04:05:06;;;;;;;9.40;4.60;;;;;;;2.22;77.12;99118.03;5088446;28;20127;-53
2023/02/04 04:07:32;;;;;;;7.53;4.57;;;;;;;2.24;76.77;99122.28;5079896;28;20609;-53
2023/02/04 04:09:58;;;;;;;8.70;5.03;;;;;;;2.26;76.64;99117.97;5069864;28;20048;-54
2023/02/04 04:12:23;;;;;;;8.60;4.65;;;;;;;2.33;76.48;99127.31;5074674;28;20032;-54
2023/02/04 04:14:49;;;;;;;13.20;5.07;;;;;;;2.38;76.35;99127.25;5088266;28;20039;-54
2023/02/04 04:17:15;;;;;;;8.32;5.13;;;;;;;2.41;76.42;99129.78;5088190;28;20067;-53
2023/02/04 04:19:43;;;;;;;10.85;5.63;;;;;;;2.44;76.19;99137.47;5087486;28;20564;-52
2023/02/04 04:22:08;;;;;;;8.57;5.38;;;;;;;2.44;76.17;99138.31;5073694;28;20519;-55
2023/02/04 04:24:34;;;;;;;10.20;5.03;;;;;;;2.47;76.12;99134.84;5069896;28;20068;-52
2023/02/04 04:27:00;;;;;;;10.85;5.00;;;;;;;2.48;76.15;99137.41;5087039;28;20044;-51
2023/02/04 04:29:26;;;;;;;10.30;5.07;;;;;;;2.51;75.95;99133.97;5087482;28;20072;-54
2023/02/04 04:31:52;;;;;;;10.63;5.22;;;;;;;2.52;75.68;99141.63;5087212;28;20522;-55
2023/02/04 04:34:18;;;;;;;8.07;4.90;;;;;;;2.53;75.49;99142.50;5068325;28;20123;-51
2023/02/04 04:36:44;;;;;;;11.85;5.43;;;;;;;2.55;75.66;99145.91;5068186;28;20083;-49
2023/02/04 04:39:10;;;;;;;14.60;5.72;;;;;;;2.39;75.31;99111.00;5083918;28;20478;-52
2023/02/04 04:41:35;;;;;;;13.25;5.72;;;;;;;2.56;74.77;99145.84;5066242;28;20080;-48
2023/02/04 04:44:01;;;;;;;12.50;5.07;;;;;;;2.58;74.64;99150.13;5083133;28;20478;-51
2023/02/04 04:46:27;;;;;;;9.13;5.55;;;;;;;2.40;74.60;99130.69;5088016;28;20044;-51
2023/02/04 04:48:53;;;;;;;8.13;4.68;;;;;;;2.56;74.19;99158.69;5091551;28;20036;-53
2023/02/04 04:51:19;;;;;;;9.50;5.05;;;;;;;2.58;74.13;99156.13;5086689;28;20040;-50
2023/02/04 04:53:45;;;;;;;8.52;4.72;;;;;;;2.58;74.31;99163.81;5089157;28;20071;-50
2023/02/04 04:56:11;;;;;;;10.88;4.82;;;;;;;2.59;74.03;99162.09;5090087;28;20070;-53
2023/02/04 04:58:37;;;;;;;8.77;4.38;;;;;;;2.61;74.08;99170.66;5090178;28;20044;-50
2023/02/04 05:01:02;;;;;;;11.70;4.90;;;;;;;2.41;73.71;99134.91;5091267;28;20044;-56
2023/02/04 05:03:28;;;;;;;8.00;4.80;;;;;;;2.59;73.71;99162.09;5090643;28;20038;-53
2023/02/04 05:05:54;;;;;;;8.18;4.32;;;;;;;2.60;73.39;99167.22;5091055;28;20081;-54
2023/02/04 05:08:20;;;;;;;9.02;4.88;;;;;;;2.59;73.47;99177.50;5079696;28;20036;-55
2023/02/04 05:10:46;;;;;;;8.63;4.85;;;;;;;2.63;73.34;99174.03;5070500;28;20056;-52
2023/02/04 05:13:12;;;;;;;9.65;4.95;;;;;;;2.63;73.33;99174.88;5069349;28;20040;-52
2023/02/04 05:15:38;;;;;;;10.30;5.07;;;;;;;2.63;73.25;99177.44;5054322;28;20176;-54
2023/02/04 05:18:04;;;;;;;9.13;4.68;;;;;;;2.65;73.20;99190.28;5075100;28;20245;-54
2023/02/04 05:20:30;;;;;;;11.68;5.97;;;;;;;2.66;73.12;99186.84;5089783;28;20115;-54
2023/02/04 05:22:56;;;;;;;10.88;5.40;;;;;;;2.68;72.97;99196.22;5084517;28;20451;-55
2023/02/04 05:25:22;;;;;;;8.75;5.50;;;;;;;2.72;72.78;99192.72;5070797;28;20028;-52
2023/02/04 05:27:48;;;;;;;16.02;6.60;;;;;;;2.72;73.21;99197.03;5086318;28;20036;-49
2023/02/04 05:30:14;;;;;;;10.15;5.03;;;;;;;2.73;73.15;99202.13;5073573;28;20559;-53
2023/02/04 05:32:40;;;;;;;12.10;5.32;;;;;;;2.74;73.37;99200.44;5072122;28;20070;-54
2023/02/04 05:35:07;;;;;;;11.95;5.80;;;;;;;2.77;73.31;99211.53;5070566;28;20040;-53
2023/02/04 05:37:32;;;;;;;14.82;6.30;;;;;;;2.78;73.21;99212.34;5070806;28;20058;-48
2023/02/04 05:39:58;;;;;;;12.20;6.70;;;;;;;2.77;73.27;99214.09;5083862;28;20052;-49
2023/02/04 05:42:24;;;;;;;13.35;5.78;;;;;;;2.77;73.45;99210.69;5090403;28;20036;-51
2023/02/04 05:44:50;;;;;;;10.07;5.47;;;;;;;2.75;73.31;99215.81;5088609;28;20051;-50
2023/02/04 05:47:16;;;;;;;14.00;6.95;;;;;;;2.79;73.39;99219.19;5078923;28;20040;-56
2023/02/04 05:49:41;;;;;;;11.90;5.43;;;;;;;2.61;73.31;99192.03;5072746;28;20043;-53
2023/02/04 05:52:07;;;;;;;11.70;5.93;;;;;;;2.77;73.00;99220.94;5090168;28;20069;-54
2023/02/04 05:54:33;;;;;;;12.02;5.68;;;;;;;2.75;73.14;99228.66;5089488;28;20197;-53
2023/02/04 05:56:59;;;;;;;12.13;5.93;;;;;;;2.61;72.96;99212.56;5086141;28;20043;-52
2023/02/04 05:59:25;;;;;;;11.65;5.85;;;;;;;2.76;73.25;99238.06;5071582;28;20040;-52
2023/02/04 06:01:50;;;;;;;10.13;5.50;;;;;;;2.76;73.11;99238.06;5081095;28;20062;-53
2023/02/04 06:04:16;;;;;;;11.07;5.90;;;;;;;2.76;73.08;99234.63;5071309;28;20048;-51
2023/02/04 06:06:43;;;;;;;10.05;6.00;;;;;;;2.62;72.70;99211.66;5079015;28;20186;-59
2023/02/04 06:09:09;;;;;;;11.70;6.25;;;;;;;2.75;72.96;99241.47;5089132;28;20154;-50
2023/02/04 06:11:35;;;;;;;10.15;5.75;;;;;;;2.74;73.08;99244.06;5080280;28;20045;-53
2023/02/04 06:14:01;;;;;;;10.68;5.82;;;;;;;2.74;72.72;99252.63;5084664;28;20050;-53
2023/02/04 06:16:27;;;;;;;10.60;5.72;;;;;;;2.74;72.88;99251.75;5090236;28;20044;-48
2023/02/04 06:18:53;;;;;;;10.88;6.13;;;;;;;2.58;72.68;99233.09;5088322;28;20134;-50
2023/02/04 06:21:20;;;;;;;10.88;6.30;;;;;;;2.58;72.80;99235.66;5070719;28;20036;-52
2023/02/04 06:23:46;;;;;;;13.35;6.60;;;;;;;2.72;72.89;99262.03;5087017;28;20823;-55
2023/02/04 06:26:12;;;;;;;11.43;6.32;;;;;;;2.76;72.93;99273.13;5089235;28;20116;-50
2023/02/04 06:28:38;;;;;;;12.23;6.45;;;;;;;2.74;72.81;99272.28;5086361;28;20504;-52
2023/02/04 06:31:04;;;;;;;12.68;5.93;;;;;;;2.74;72.84;99273.16;5088689;28;20051;-54
2023/02/04 06:33:30;;;;;;;14.20;6.20;;;;;;;2.75;72.60;99272.28;5087516;28;20036;-52
2023/02/04 06:35:56;;;;;;;12.30;5.97;;;;;;;2.75;72.60;99276.56;5086850;28;20043;-54
2023/02/04 06:38:21;;;;;;;10.85;6.20;;;;;;;2.78;72.78;99285.06;5075688;28;20683;-49
2023/02/04 06:40:48;;;;;;;12.90;6.57;;;;;;;2.79;72.65;99284.22;5073351;28;20511;-52
2023/02/04 06:43:17;;;;;;;15.05;6.25;;;;;;;2.79;72.77;99289.34;5078154;28;20039;-50
2023/02/04 06:45:43;;;;;;;12.45;5.70;;;;;;;2.79;72.46;99275.66;5089085;28;20156;-51
2023/02/04 06:48:08;;;;;;;9.90;5.75;;;;;;;2.82;72.87;99285.91;5082267;28;20515;-51
2023/02/04 06:50:34;;;;;;;9.70;5.22;;;;;;;2.81;72.57;99289.34;5085950;28;20043;-49
2023/02/04 06:53:00;;;;;;;11.55;6.05;;;;;;;2.85;72.52;99291.88;5061992;28;20045;-48
2023/02/04 06:55:26;;;;;;;14.02;6.45;;;;;;;2.86;72.26;99301.28;5080151;28;20079;-51
2023/02/04 06:57:52;;;;;;;10.82;5.97;;;;;;;2.87;72.35;99295.28;5078330;28;20048;-50
2023/02/04 07:00:18;;;;;;;12.45;6.18;;;;;;;2.90;72.35;99300.38;5071873;28;20043;-54
2023/02/04 07:02:44;;;;;;;13.50;6.80;;;;;;;2.82;72.18;99288.47;5074122;28;20041;-52
2023/02/04 07:05:10;;;;;;;17.25;6.95;;;;;;;2.98;72.11;99308.84;5079045;28;20036;-52
2023/02/04 07:07:36;;;;;;;13.32;6.95;;;;;;;2.87;72.15;99284.16;5077763;28;20113;-53
2023/02/04 07:10:03;;;;;;;11.80;5.55;;;;;;;3.07;72.11;99312.19;5079477;28;20063;-51
2023/02/04 07:12:29;;;;;;;10.93;6.15;;;;;;;3.11;72.08;99321.56;5079006;28;20500;-48
2023/02/04 07:14:55;;;;;;;11.77;5.95;;;;;;;3.14;72.09;99314.66;5077662;28;20036;-55
2023/02/04 07:17:22;;;;;;;8.25;5.15;;;;;;;3.17;72.01;99322.34;5075423;28;20131;-57
2023/02/04 07:19:48;;;;;;;9.85;5.78;;;;;;;3.19;71.76;99324.91;5076245;28;20040;-55
2023/02/04 07:22:14;;;;;;;10.05;5.75;;;;;;;3.19;71.76;99320.59;5078331;28;20047;-60
2023/02/04 07:24:40;;;;;;;11.77;5.75;;;;;;;3.17;71.71;99324.94;5072271;28;20072;-54
2023/02/04 07:27:05;;;;;;;14.13;6.30;;;;;;;3.20;71.61;99326.59;5078846;28;20052;-53
2023/02/04 07:29:31;;;;;;;11.43;6.15;;;;;;;3.19;71.72;99328.31;5075846;28;20500;-53
2023/02/04 07:31:57;;;;;;;14.00;6.40;;;;;;;3.19;71.72;99330.88;5077489;28;20044;-53
2023/02/04 07:34:23;;;;;;;11.95;6.70;;;;;;;3.18;71.79;99333.47;5080632;28;20044;-54
2023/02/04 07:36:49;;;;;;;12.35;6.72;;;;;;;3.21;71.69;99344.56;5087181;28;20066;-55
2023/02/04 07:39:15;;;;;;;12.15;5.93;;;;;;;3.03;71.75;99316.53;5083394;28;20065;-55
2023/02/04 07:41:41;;;;;;;14.00;6.97;;;;;;;3.22;71.69;99346.28;5079226;28;20476;-55
2023/02/04 07:44:07;;;;;;;12.65;6.57;;;;;;;2.97;71.67;99302.03;5075100;28;20047;-55
2023/02/04 07:46:32;;;;;;;13.65;7.00;;;;;;;3.25;71.82;99348.81;5082665;28;20104;-54
2023/02/04 07:48:58;;;;;;;12.48;6.82;;;;;;;3.28;71.65;99345.38;5071315;28;20044;-56
2023/02/04 07:51:24;;;;;;;14.20;7.03;;;;;;;3.31;71.46;99353.88;5077527;28;20036;-55
2023/02/04 07:53:50;;;;;;;12.45;6.95;;;;;;;3.29;71.60;99353.06;5063652;28;20579;-54
2023/02/04 07:56:16;;;;;;;14.80;7.55;;;;;;;3.32;71.47;99360.72;5047599;28;20048;-55
2023/02/04 07:58:42;;;;;;;15.07;7.97;;;;;;;3.32;71.28;99360.72;5078695;28;20032;-57
2023/02/04 08:01:08;;;;;;;18.90;8.80;;;;;;;3.16;71.00;99330.91;5081115;28;20139;-57
2023/02/04 08:03:34;;;;;;;13.60;7.97;;;;;;;3.37;71.12;99363.25;5081324;28;20044;-55
2023/02/04 08:06:00;;;;;;;15.63;8.70;;;;;;;3.41;70.88;99360.63;5073750;28;20040;-55
2023/02/04 08:08:26;;;;;;;15.55;7.78;;;;;;;3.40;70.97;99358.09;5081001;28;20078;-60
2023/02/04 08:10:52;;;;;;;14.05;7.20;;;;;;;3.44;71.04;99372.59;5080347;28;20060;-53
2023/02/04 08:13:18;;;;;;;15.82;8.52;;;;;;;3.50;70.59;99372.53;5078462;28;20040;-59
2023/02/04 08:15:44;;;;;;;14.90;7.82;;;;;;;3.49;70.52;99368.25;5083078;28;20516;-60
2023/02/04 08:18:10;;;;;;;16.20;9.13;;;;;;;3.48;70.79;99363.97;5088537;28;20551;-60
2023/02/04 08:20:36;;;;;;;18.42;8.82;;;;;;;3.53;70.64;99367.34;5079802;28;20119;-61
2023/02/04 08:23:02;;;;;;;14.55;8.45;;;;;;;3.55;70.52;99367.34;5090399;28;20044;-63
2023/02/04 08:25:28;;;;;;;15.57;8.57;;;;;;;3.56;69.91;99375.00;5082643;28;20040;-65
2023/02/04 08:27:54;;;;;;;14.90;7.72;;;;;;;3.57;70.27;99371.59;5087358;28;20036;-63
2023/02/04 08:30:20;;;;;;;13.50;7.32;;;;;;;3.61;70.35;99375.00;5089786;28;20154;-62
2023/02/04 08:32:46;;;;;;;17.33;8.98;;;;;;;3.65;70.46;99382.66;5089114;28;20069;-63
2023/02/04 08:35:12;;;;;;;14.57;8.07;;;;;;;3.68;69.86;99380.03;5090868;28;20032;-62
2023/02/04 08:37:38;;;;;;;16.63;8.15;;;;;;;3.53;70.21;99351.06;5078519;28;20181;-63
2023/02/04 08:40:04;;;;;;;24.08;9.35;;;;;;;3.71;69.86;99382.56;5074892;28;20820;-62
2023/02/04 08:42:30;;;;;;;16.58;8.18;;;;;;;3.75;69.91;99383.38;5091410;28;20411;-62
2023/02/04 08:44:56;;;;;;;15.25;8.45;;;;;;;3.80;69.58;99386.75;5091701;28;20047;-62
2023/02/04 08:47:21;;;;;;;18.90;8.45;;;;;;;3.84;70.04;99383.25;5073715;28;20083;-64
2023/02/04 08:49:47;;;;;;;16.58;8.20;;;;;;;3.89;69.79;99383.19;5073745;28;20037;-62
2023/02/04 08:52:13;;;;;;;15.57;9.18;;;;;;;3.88;69.71;99392.63;5071258;28;20036;-62
2023/02/04 08:54:39;;;;;;;18.55;9.65;;;;;;;3.94;69.61;99382.28;5074230;28;20422;-61
2023/02/04 08:57:05;;;;;;;21.80;11.65;;;;;;;3.98;69.83;99383.13;5082312;28;20048;-61
2023/02/04 08:59:31;;;;;;;22.88;12.02;;;;;;;4.04;69.48;99390.72;5070008;28;20539;-62
2023/02/04 09:01:57;;;;;;;21.48;11.80;;;;;;;4.08;69.09;99390.66;5069881;28;20527;-63
2023/02/04 09:04:23;;;;;;;21.40;10.57;;;;;;;4.13;69.35;99393.19;5071187;28;20049;-63
2023/02/04 09:06:50;;;;;;;20.80;10.88;;;;;;;3.93;69.25;99369.44;5077023;28;20036;-63
2023/02/04 09:09:16;;;;;;;22.50;10.93;;;;;;;4.03;69.28;99389.88;5091106;28;20080;-62
2023/02/04 09:11:42;;;;;;;18.40;11.93;;;;;;;4.04;69.56;99390.72;5071158;28;20130;-61
2023/02/04 09:14:08;;;;;;;23.02;13.25;;;;;;;4.07;69.54;99394.13;5070934;28;20040;-61
2023/02/04 09:16:34;;;;;;;22.50;12.43;;;;;;;4.00;69.55;99374.50;5071050;28;20047;-62
2023/02/04 09:19:03;;;;;;;21.73;11.07;;;;;;;4.24;69.06;99396.47;5069733;28;20035;-63
2023/02/04 09:21:29;;;;;;;25.17;11.18;;;;;;;4.33;69.03;99403.22;5083755;28;20073;-64
2023/02/04 09:23:55;;;;;;;22.98;11.95;;;;;;;4.35;68.68;99409.19;5089513;28;20448;-62
2023/02/04 09:26:21;;;;;;;28.17;11.95;;;;;;;4.34;68.99;99408.34;5076174;28;20052;-64
2023/02/04 09:28:47;;;;;;;23.35;11.65;;;;;;;4.36;69.11;99410.88;5069453;28;20431;-63
2023/02/04 09:31:14;;;;;;;22.13;11.07;;;;;;;4.35;68.80;99415.19;5081661;28;20083;-62
2023/02/04 09:33:40;;;;;;;18.77;10.52;;;;;;;4.38;68.88;99420.31;5088647;28;20048;-62
2023/02/04 09:36:07;;;;;;;19.63;10.70;;;;;;;4.43;68.75;99420.22;5089094;28;20040;-63
2023/02/04 09:38:33;;;;;;;21.42;10.75;;;;;;;4.29;68.63;99394.69;5090883;28;20068;-62
2023/02/04 09:41:01;;;;;;;21.38;11.95;;;;;;;4.48;68.42;99423.59;5075154;28;20064;-62
2023/02/04 09:43:29;;;;;;;23.98;11.70;;;;;;;4.45;68.23;99421.06;5070282;28;20139;-62
2023/02/04 09:45:56;;;;;;;22.38;12.38;;;;;;;4.43;68.10;99418.50;5069000;28;20518;-63
2023/02/04 09:48:23;;;;;;;23.13;13.23;;;;;;;4.37;68.69;99428.03;5069084;28;20052;-64
2023/02/04 09:50:50;;;;;;;28.35;14.27;;;;;;;4.30;68.74;99432.41;5059515;28;20523;-61
2023/02/04 09:53:22;;;;;;;26.75;13.07;;;;;;;4.25;68.86;99427.31;5090613;28;20051;-64
2023/02/04 09:55:50;;;;;;;32.47;16.10;;;;;;;4.22;68.38;99422.22;5099570;28;20063;-63
2023/02/04 09:58:18;;;;;;;29.27;14.35;;;;;;;4.33;68.31;99439.25;5069006;28;20055;-63
2023/02/04 10:01:01;;;;;;;29.45;14.57;;;;;;;4.33;68.73;99434.94;5068940;28;20048;-63
2023/02/04 10:03:27;;;;;;;26.67;13.60;;;;;;;4.31;68.28;99440.97;5095456;28;20066;-62
2023/02/04 10:05:53;;;;;;;28.23;13.80;;;;;;;4.31;68.49;99434.09;5090068;28;20079;-63
2023/02/04 10:08:27;;;;;;;26.73;13.27;;;;;;;4.30;68.82;99436.69;5071874;28;20040;-63
2023/02/04 10:10:53;;;;;;;25.25;12.13;;;;;;;4.29;68.87;99437.59;5083373;28;20098;-62
2023/02/04 10:13:22;;;;;;;28.15;13.40;;;;;;;4.06;68.71;99409.56;5051766;28;20063;-64
2023/02/04 10:15:49;;;;;;;25.88;12.32;;;;;;;4.24;68.86;99441.03;5068625;28;20036;-63
2023/02/04 10:18:22;;;;;;;29.23;13.50;;;;;;;4.20;68.49;99436.81;5085437;28;20070;-64
2023/02/04 10:20:48;;;;;;;25.13;13.25;;;;;;;4.14;68.80;99447.19;5068730;28;20555;-63
2023/02/04 10:23:14;;;;;;;29.70;14.57;;;;;;;4.09;69.09;99446.38;5069799;28;20123;-64
2023/02/04 10:25:40;;;;;;;25.55;13.48;;;;;;;4.07;68.58;99449.88;5068786;28;20513;-64
2023/02/04 10:28:06;;;;;;;24.50;12.73;;;;;;;4.07;69.03;99449.88;5089746;28;20047;-64
2023/02/04 10:30:40;;;;;;;26.48;13.93;;;;;;;3.89;68.78;99427.78;5088577;28;20043;-64
2023/02/04 10:33:23;;;;;;;27.20;13.40;;;;;;;4.04;68.86;99455.88;5085666;28;20052;-63
2023/02/04 10:35:51;;;;;;;30.63;13.77;;;;;;;4.05;68.93;99460.16;5068106;28;20036;-62
2023/02/04 10:38:18;;;;;;;45.45;22.63;;;;;;;3.78;68.83;99420.19;5069567;28;20075;-63
2023/02/04 10:40:46;;;;;;;29.20;14.32;;;;;;;4.05;68.83;99461.88;5079436;28;20089;-64
2023/02/04 10:43:15;;;;;;;27.50;14.40;;;;;;;4.08;69.05;99461.88;5071550;28;20043;-64
2023/02/04 10:45:47;;;;;;;28.65;14.40;;;;;;;4.12;68.80;99460.94;5088329;28;20051;-64
2023/02/04 10:48:15;;;;;;;28.58;14.30;;;;;;;4.02;68.88;99449.94;5089292;28;20056;-64
2023/02/04 10:50:41;;;;;;;28.63;14.13;;;;;;;4.19;68.84;99476.28;5089201;28;20036;-63
2023/02/04 10:55:55;;;;;;;30.55;15.95;;;;;;;4.29;68.27;99482.19;5062745;28;20039;-65
2023/02/04 10:58:27;;;;;;;31.00;16.15;;;;;;;4.35;68.30;99482.09;5089182;28;20044;-63
2023/02/04 11:00:53;;;;;;;35.67;17.00;;;;;;;4.40;68.19;99476.88;5087961;28;20422;-64
2023/02/04 11:03:22;;;;;;;33.20;15.98;;;;;;;4.47;68.44;99481.94;5087536;28;20044;-64
2023/02/04 11:05:49;;;;;;;31.40;15.00;;;;;;;4.25;68.05;99432.47;5088010;28;20071;-65
2023/02/04 11:08:26;;;;;;;31.92;14.85;;;;;;;4.23;67.89;99429.09;5089211;28;20133;-63
2023/02/04 11:10:58;;;;;;;33.83;16.35;;;;;;;4.60;67.53;99483.50;5080318;28;20131;-63
2023/02/04 11:13:41;;;;;;;30.15;14.95;;;;;;;4.60;67.92;99486.06;5068757;28;20140;-61
2023/02/04 11:16:11;;;;;;;26.27;13.07;;;;;;;4.61;67.87;99485.16;5068872;28;20135;-64
2023/02/04 11:18:51;;;;;;;26.50;13.52;;;;;;;4.58;67.37;99490.38;5068784;28;20089;-65
2023/02/04 11:21:31;;;;;;;29.88;14.38;;;;;;;4.56;67.40;99493.81;5068830;28;20038;-62
2023/02/04 11:24:15;;;;;;;28.95;13.70;;;;;;;4.34;67.37;99461.53;5085810;28;20184;-63
2023/02/04 11:26:46;;;;;;;25.67;12.88;;;;;;;4.53;66.95;99504.19;5076887;28;20079;-63
2023/02/04 11:29:15;;;;;;;28.40;13.38;;;;;;;4.50;67.39;99504.22;5068803;28;20531;-63
2023/02/04 11:31:56;;;;;;;26.73;12.77;;;;;;;4.49;67.71;99499.94;5068455;28;20094;-64
2023/02/04 11:34:22;;;;;;;27.08;13.73;;;;;;;4.48;67.41;99498.25;5089165;28;20039;-64